Time;durP1;ratioP1;P1;durP2;ratioP2;P2;SDS_P1;SDS_P2;PMS_P1;PMS_P2;Temp;Humidity;BMP_temperature;BMP_pressure;BME280_temperature;BME280_humidity;BME280_pressure;Samples;Min_cycle;Max_cycle;Signal;HPM_P1;HPM_P2
2023/02/03 00:00:13;;;;;;;;;;;17.60;49.30;;;;;;10124679;28;1138;-74
2023/02/03 00:05:09;;;;;;;;;;;17.70;49.30;;;;;;10124515;28;1130;-74
2023/02/03 00:10:04;;;;;;;;;;;17.60;49.20;;;;;;10124947;28;1899;-74
2023/02/03 00:14:59;;;;;;;;;;;17.60;49.40;;;;;;10125003;28;863;-74
2023/02/03 00:19:55;;;;;;;;;;;17.60;49.20;;;;;;10124289;28;833;-74
2023/02/03 00:24:50;;;;;;;;;;;17.60;49.30;;;;;;10126668;28;799;-74
2023/02/03 00:29:45;;;;;;;;;;;17.60;49.20;;;;;;10132598;28;1968;-74
2023/02/03 00:34:41;;;;;;;;;;;17.50;49.20;;;;;;10132366;28;1167;-75
2023/02/03 00:39:36;;;;;;;;;;;17.60;49.20;;;;;;10131820;28;849;-74
2023/02/03 00:44:32;;;;;;;;;;;17.60;49.10;;;;;;10130994;28;913;-74
2023/02/03 00:49:27;;;;;;;;;;;17.60;49.20;;;;;;10131383;28;1982;-74
2023/02/03 00:54:22;;;;;;;;;;;17.60;49.20;;;;;;10131313;28;939;-74
2023/02/03 00:59:18;;;;;;;;;;;17.60;49.20;;;;;;10130526;28;889;-74
2023/02/03 01:04:13;;;;;;;;;;;17.60;49.20;;;;;;10130863;28;788;-74
2023/02/03 01:09:08;;;;;;;;;;;17.60;49.20;;;;;;10131446;28;1958;-74
2023/02/03 01:14:04;;;;;;;;;;;17.60;49.10;;;;;;10131133;28;958;-74
2023/02/03 01:18:59;;;;;;;;;;;17.60;49.20;;;;;;10131051;28;799;-74
2023/02/03 01:23:54;;;;;;;;;;;17.60;49.10;;;;;;10130950;28;955;-74
2023/02/03 01:28:50;;;;;;;;;;;17.60;49.10;;;;;;10129925;28;1898;-74
2023/02/03 01:33:47;;;;;;;;;;;17.60;49.20;;;;;;10130628;28;896;-74
2023/02/03 01:38:43;;;;;;;;;;;17.60;49.20;;;;;;10128039;28;1281;-74
2023/02/03 01:43:38;;;;;;;;;;;17.60;49.20;;;;;;10129348;28;1053;-74
2023/02/03 01:48:34;;;;;;;;;;;17.60;49.10;;;;;;10130114;28;1978;-74
2023/02/03 01:53:29;;;;;;;;;;;17.60;49.10;;;;;;10129035;28;791;-74
2023/02/03 01:58:25;;;;;;;;;;;17.60;49.10;;;;;;10129044;28;908;-74
2023/02/03 02:03:20;;;;;;;;;;;17.60;49.10;;;;;;10128748;28;878;-74
2023/02/03 02:08:17;;;;;;;;;;;17.50;49.10;;;;;;10129023;28;1894;-74
2023/02/03 02:13:12;;;;;;;;;;;17.60;49.20;;;;;;10128250;28;852;-74
2023/02/03 02:18:07;;;;;;;;;;;17.60;49.10;;;;;;10128086;28;865;-74
2023/02/03 02:23:03;;;;;;;;;;;17.60;49.70;;;;;;10128280;28;975;-74
2023/02/03 02:27:58;;;;;;;;;;;17.50;49.10;;;;;;10127744;28;1964;-74
2023/02/03 02:32:53;;;;;;;;;;;17.50;49.10;;;;;;10127598;28;871;-74
2023/02/03 02:37:49;;;;;;;;;;;17.60;49.10;;;;;;10128263;28;1410;-74
2023/02/03 02:42:44;;;;;;;;;;;17.50;49.00;;;;;;10127942;28;854;-74
2023/02/03 02:47:40;;;;;;;;;;;17.60;49.10;;;;;;10126159;28;1972;-74
2023/02/03 02:52:35;;;;;;;;;;;17.50;49.00;;;;;;10126299;28;1058;-74
2023/02/03 02:57:30;;;;;;;;;;;17.50;49.00;;;;;;10126738;28;901;-74
2023/02/03 03:02:26;;;;;;;;;;;17.50;48.90;;;;;;10126471;28;774;-74
2023/02/03 03:07:21;;;;;;;;;;;17.50;49.00;;;;;;10126155;28;1898;-74
2023/02/03 03:12:16;;;;;;;;;;;17.60;48.90;;;;;;10126901;28;999;-74
2023/02/03 03:17:12;;;;;;;;;;;17.50;48.90;;;;;;10126012;28;825;-74
2023/02/03 03:22:07;;;;;;;;;;;17.50;49.00;;;;;;10125814;28;942;-75
2023/02/03 03:27:03;;;;;;;;;;;17.50;49.00;;;;;;10125867;28;1974;-74
2023/02/03 03:31:58;;;;;;;;;;;17.50;49.00;;;;;;10126110;28;760;-74
2023/02/03 03:36:53;;;;;;;;;;;17.50;49.00;;;;;;10125141;28;1244;-74
2023/02/03 03:41:49;;;;;;;;;;;17.60;49.00;;;;;;10125192;28;782;-74
2023/02/03 03:46:45;;;;;;;;;;;17.50;48.90;;;;;;10125649;28;957;-74
2023/02/03 03:51:40;;;;;;;;;;;17.50;48.80;;;;;;10124765;28;1969;-74
2023/02/03 03:56:36;;;;;;;;;;;17.50;48.80;;;;;;10124665;28;905;-74
2023/02/03 04:01:31;;;;;;;;;;;17.50;48.80;;;;;;10124545;28;764;-74
2023/02/03 04:06:27;;;;;;;;;;;17.50;48.90;;;;;;10123990;28;1043;-74
2023/02/03 04:16:36;;;;;;;;;;;17.50;48.80;;;;;;10124598;28;569;-74
2023/02/03 04:21:31;;;;;;;;;;;17.50;48.90;;;;;;10124508;28;965;-74
2023/02/03 04:26:27;;;;;;;;;;;17.50;48.80;;;;;;10124249;28;785;-74
2023/02/03 04:31:22;;;;;;;;;;;17.50;48.80;;;;;;10124075;28;1899;-74
2023/02/03 04:36:17;;;;;;;;;;;17.50;48.80;;;;;;10124537;28;1344;-74
2023/02/03 04:41:13;;;;;;;;;;;17.50;48.80;;;;;;10124536;28;840;-74
2023/02/03 04:46:09;;;;;;;;;;;17.50;48.80;;;;;;10123849;28;821;-74
2023/02/03 04:51:04;;;;;;;;;;;17.50;48.80;;;;;;10124362;28;1906;-74
2023/02/03 04:56:00;;;;;;;;;;;17.50;48.70;;;;;;10123699;28;774;-74
2023/02/03 05:00:55;;;;;;;;;;;17.50;48.60;;;;;;10123604;28;913;-74
2023/02/03 05:05:50;;;;;;;;;;;17.50;49.20;;;;;;10123536;28;724;-74
2023/02/03 05:10:46;;;;;;;;;;;17.50;48.70;;;;;;10125440;28;1903;-74
2023/02/03 05:15:41;;;;;;;;;;;17.60;48.70;;;;;;10131133;28;795;-74
2023/02/03 05:20:36;;;;;;;;;;;17.60;48.60;;;;;;10130310;28;786;-74
2023/02/03 05:25:32;;;;;;;;;;;17.60;48.50;;;;;;10130769;28;815;-74
2023/02/03 05:30:27;;;;;;;;;;;17.60;48.50;;;;;;10129956;28;1956;-74
2023/02/03 05:35:22;;;;;;;;;;;17.70;48.40;;;;;;10129861;28;1147;-74
2023/02/03 05:45:32;;;;;;;;;;;17.70;48.40;;;;;;10129766;28;609;-74
2023/02/03 05:50:31;;;;;;;;;;;17.70;48.30;;;;;;10129219;28;1922;-74
2023/02/03 05:55:27;;;;;;;;;;;17.70;48.30;;;;;;10129558;28;884;-74
2023/02/03 06:00:22;;;;;;;;;;;17.80;48.30;;;;;;10129462;28;945;-74
2023/02/03 06:05:18;;;;;;;;;;;17.70;48.40;;;;;;10128738;28;860;-74
2023/02/03 06:10:13;;;;;;;;;;;17.80;48.30;;;;;;10111318;28;1919;-74
2023/02/03 06:15:09;;;;;;;;;;;17.70;48.40;;;;;;10128399;28;806;-74
2023/02/03 06:20:04;;;;;;;;;;;17.80;48.40;;;;;;10128274;28;806;-74
2023/02/03 06:24:59;;;;;;;;;;;17.80;48.30;;;;;;10127541;28;775;-74
2023/02/03 06:29:55;;;;;;;;;;;17.80;48.30;;;;;;10127894;28;1894;-74
2023/02/03 06:34:50;;;;;;;;;;;17.70;48.30;;;;;;10127408;28;1123;-74
2023/02/03 06:39:45;;;;;;;;;;;17.80;48.30;;;;;;10127484;28;814;-74
2023/02/03 06:44:41;;;;;;;;;;;17.70;48.20;;;;;;10126664;28;901;-74
2023/02/03 06:49:36;;;;;;;;;;;17.80;48.30;;;;;;10127031;28;1910;-75
2023/02/03 06:54:32;;;;;;;;;;;17.80;48.20;;;;;;10126891;28;809;-75
2023/02/03 06:59:27;;;;;;;;;;;17.80;48.10;;;;;;10127258;28;869;-74
2023/02/03 07:04:22;;;;;;;;;;;17.80;48.20;;;;;;10127707;28;833;-74
2023/02/03 07:09:18;;;;;;;;;;;17.90;48.40;;;;;;10126249;28;1906;-75
2023/02/03 07:14:13;;;;;;;;;;;17.80;48.60;;;;;;10126083;28;776;-75
2023/02/03 07:19:08;;;;;;;;;;;17.80;48.70;;;;;;10126566;28;794;-75
2023/02/03 07:24:04;;;;;;;;;;;17.80;48.80;;;;;;10125784;28;834;-75
2023/02/03 07:28:59;;;;;;;;;;;17.80;48.70;;;;;;10125747;28;1906;-74
2023/02/03 07:33:55;;;;;;;;;;;17.80;48.80;;;;;;10125046;28;991;-73
2023/02/03 07:38:50;;;;;;;;;;;17.80;48.70;;;;;;10125527;28;1237;-75
2023/02/03 07:43:45;;;;;;;;;;;17.90;48.70;;;;;;10125162;28;820;-75
2023/02/03 07:48:41;;;;;;;;;;;17.90;48.70;;;;;;10125547;28;1942;-75
2023/02/03 07:53:36;;;;;;;;;;;17.90;48.80;;;;;;10125570;28;891;-75
2023/02/03 07:58:32;;;;;;;;;;;18.00;48.80;;;;;;10124824;28;938;-75
2023/02/03 08:03:27;;;;;;;;;;;18.00;49.00;;;;;;10124727;28;891;-76
2023/02/03 08:08:22;;;;;;;;;;;18.00;49.10;;;;;;10124525;28;1906;-76
2023/02/03 08:13:18;;;;;;;;;;;18.00;49.10;;;;;;10125089;28;849;-76
2023/02/03 08:18:13;;;;;;;;;;;17.90;49.10;;;;;;10123934;28;863;-76
2023/02/03 08:23:08;;;;;;;;;;;18.00;49.20;;;;;;10124296;28;788;-75
2023/02/03 08:28:04;;;;;;;;;;;17.90;49.10;;;;;;10124761;28;1955;-76
2023/02/03 08:32:59;;;;;;;;;;;18.00;49.20;;;;;;10124737;28;775;-73
2023/02/03 08:37:55;;;;;;;;;;;17.90;49.20;;;;;;10124087;28;1494;-76
2023/02/03 08:42:50;;;;;;;;;;;17.90;49.20;;;;;;10123854;28;942;-76
2023/02/03 08:47:45;;;;;;;;;;;17.90;49.20;;;;;;10128458;28;1910;-76
2023/02/03 08:52:41;;;;;;;;;;;18.00;49.20;;;;;;10132004;28;830;-76
2023/02/03 08:57:36;;;;;;;;;;;17.90;49.20;;;;;;10131847;28;941;-73
2023/02/03 09:02:31;;;;;;;;;;;17.90;49.10;;;;;;10131094;28;875;-74
2023/02/03 09:07:27;;;;;;;;;;;18.00;49.20;;;;;;10131009;28;1895;-75
2023/02/03 09:12:22;;;;;;;;;;;17.90;49.10;;;;;;10130061;28;834;-75
2023/02/03 09:17:18;;;;;;;;;;;17.90;49.20;;;;;;10130521;28;788;-75
2023/02/03 09:22:13;;;;;;;;;;;18.00;49.10;;;;;;10130356;28;912;-76
2023/02/03 09:27:08;;;;;;;;;;;17.90;49.20;;;;;;10131172;28;1903;-74
2023/02/03 09:32:07;;;;;;;;;;;18.00;49.20;;;;;;10129951;28;792;-76
2023/02/03 09:37:03;;;;;;;;;;;18.00;49.20;;;;;;10129804;28;1108;-75
2023/02/03 09:41:58;;;;;;;;;;;18.00;49.20;;;;;;10129056;28;1090;-80
2023/02/03 09:46:53;;;;;;;;;;;17.90;49.30;;;;;;10129506;28;876;-79
2023/02/03 09:51:49;;;;;;;;;;;17.80;49.60;;;;;;10129249;28;1979;-79
2023/02/03 09:56:49;;;;;;;;;;;17.70;49.50;;;;;;10128103;28;782;-79
2023/02/03 10:01:45;;;;;;;;;;;17.70;49.50;;;;;;10121099;28;833;-78
2023/02/03 10:06:40;;;;;;;;;;;17.70;49.50;;;;;;10128184;28;1267;-79
2023/02/03 10:11:36;;;;;;;;;;;17.60;49.50;;;;;;10128459;28;1902;-79
2023/02/03 10:16:32;;;;;;;;;;;17.60;49.50;;;;;;10128385;28;914;-79
2023/02/03 10:21:27;;;;;;;;;;;17.60;49.50;;;;;;10127646;28;908;-79
2023/02/03 10:26:22;;;;;;;;;;;17.60;49.50;;;;;;10128002;28;791;-78
2023/02/03 10:31:18;;;;;;;;;;;17.50;49.40;;;;;;10127722;28;1879;-79
2023/02/03 10:36:13;;;;;;;;;;;17.60;49.50;;;;;;10140598;28;1137;-78
2023/02/03 10:41:09;;;;;;;;;;;17.50;49.40;;;;;;10168138;28;897;-79
2023/02/03 10:46:04;;;;;;;;;;;17.50;49.40;;;;;;10167975;28;976;-79
2023/02/03 10:50:59;;;;;;;;;;;17.50;49.30;;;;;;10166518;28;1976;-79
2023/02/03 10:55:55;;;;;;;;;;;17.50;49.30;;;;;;10165857;28;912;-78
2023/02/03 11:00:50;;;;;;;;;;;17.60;49.30;;;;;;10165974;28;891;-76
2023/02/03 11:05:46;;;;;;;;;;;17.50;49.20;;;;;;10166010;28;806;-78
2023/02/03 11:10:42;;;;;;;;;;;17.50;49.20;;;;;;10165441;28;1879;-79
2023/02/03 11:15:37;;;;;;;;;;;17.60;49.30;;;;;;10166114;28;842;-79
2023/02/03 11:20:34;;;;;;;;;;;17.60;49.30;;;;;;10164875;28;849;-77
2023/02/03 11:25:29;;;;;;;;;;;17.60;49.30;;;;;;10165968;28;869;-77
2023/02/03 11:30:25;;;;;;;;;;;17.50;49.20;;;;;;10165670;28;1902;-77
2023/02/03 11:35:20;;;;;;;;;;;17.60;49.20;;;;;;10165242;28;1308;-77
2023/02/03 11:40:16;;;;;;;;;;;17.60;49.20;;;;;;10164896;28;772;-77
2023/02/03 11:45:12;;;;;;;;;;;17.50;49.20;;;;;;10164509;28;908;-77
2023/02/03 11:50:07;;;;;;;;;;;17.60;49.20;;;;;;10164415;28;1965;-77
2023/02/03 11:55:03;;;;;;;;;;;17.50;49.10;;;;;;10164435;28;940;-77
2023/02/03 11:59:58;;;;;;;;;;;17.60;49.20;;;;;;10164330;28;746;-77
2023/02/03 12:04:53;;;;;;;;;;;17.60;49.10;;;;;;10163489;28;924;-77
2023/02/03 12:09:49;;;;;;;;;;;17.60;49.10;;;;;;10164645;28;1973;-77
2023/02/03 12:14:44;;;;;;;;;;;17.60;49.20;;;;;;10164010;28;762;-77
2023/02/03 12:19:39;;;;;;;;;;;17.60;49.20;;;;;;10163932;28;933;-77
2023/02/03 12:24:35;;;;;;;;;;;17.60;49.10;;;;;;10171926;28;790;-77
2023/02/03 12:29:30;;;;;;;;;;;17.60;49.10;;;;;;10171911;28;1960;-76
2023/02/03 12:34:26;;;;;;;;;;;17.60;49.10;;;;;;10171781;28;782;-76
2023/02/03 12:39:21;;;;;;;;;;;17.60;49.10;;;;;;10172305;28;1178;-75
2023/02/03 12:44:16;;;;;;;;;;;17.60;49.10;;;;;;10171414;28;1176;-76
2023/02/03 12:49:12;;;;;;;;;;;17.60;49.10;;;;;;10171535;28;1910;-76
2023/02/03 12:54:07;;;;;;;;;;;17.60;49.20;;;;;;10172413;28;767;-76
2023/02/03 12:59:04;;;;;;;;;;;17.60;49.10;;;;;;10170292;28;845;-76
2023/02/03 13:03:59;;;;;;;;;;;17.60;49.10;;;;;;10170629;28;782;-76
2023/02/03 13:08:54;;;;;;;;;;;17.60;49.10;;;;;;10171095;28;1906;-76
2023/02/03 13:13:50;;;;;;;;;;;17.60;49.00;;;;;;10170357;28;873;-76
2023/02/03 13:18:45;;;;;;;;;;;17.60;49.10;;;;;;10170116;28;842;-76
2023/02/03 13:23:43;;;;;;;;;;;17.60;49.10;;;;;;10170610;28;861;-76
2023/02/03 13:28:38;;;;;;;;;;;17.60;49.10;;;;;;10170205;28;1894;-76
2023/02/03 13:33:34;;;;;;;;;;;17.60;49.10;;;;;;10169568;28;764;-76
2023/02/03 13:38:29;;;;;;;;;;;17.60;49.10;;;;;;10170049;28;1173;-76
2023/02/03 13:43:25;;;;;;;;;;;17.60;49.10;;;;;;10169268;28;863;-76
2023/02/03 13:48:21;;;;;;;;;;;17.60;49.10;;;;;;10168336;28;1910;-76
2023/02/03 13:53:16;;;;;;;;;;;17.60;49.10;;;;;;10169392;28;790;-76
2023/02/03 13:58:12;;;;;;;;;;;17.60;49.00;;;;;;10169188;28;787;-71
2023/02/03 14:03:07;;;;;;;;;;;17.70;49.00;;;;;;10168190;28;961;-72
2023/02/03 14:08:02;;;;;;;;;;;17.90;49.40;;;;;;10168553;28;1957;-72
2023/02/03 14:12:58;;;;;;;;;;;18.00;49.50;;;;;;10168434;28;934;-71
2023/02/03 14:17:54;;;;;;;;;;;18.00;49.50;;;;;;10166977;28;1136;-72
2023/02/03 14:22:49;;;;;;;;;;;18.00;49.50;;;;;;10167449;28;776;-72
2023/02/03 14:27:45;;;;;;;;;;;18.10;49.50;;;;;;10167189;28;1898;-72
2023/02/03 14:32:40;;;;;;;;;;;18.10;49.50;;;;;;10167082;28;810;-72
2023/02/03 14:37:35;;;;;;;;;;;18.10;49.50;;;;;;10166250;28;1282;-72
2023/02/03 14:42:31;;;;;;;;;;;18.10;49.50;;;;;;10166467;28;984;-72
2023/02/03 14:47:26;;;;;;;;;;;18.10;49.50;;;;;;10166163;28;1910;-72
2023/02/03 14:52:21;;;;;;;;;;;18.10;49.70;;;;;;10165534;28;862;-72
2023/02/03 14:57:20;;;;;;;;;;;18.10;49.70;;;;;;10167013;28;802;-72
2023/02/03 15:02:15;;;;;;;;;;;18.10;49.70;;;;;;10165791;28;868;-72
2023/02/03 15:07:11;;;;;;;;;;;18.10;49.70;;;;;;10165753;28;888;-71
2023/02/03 15:12:06;;;;;;;;;;;18.10;49.70;;;;;;10166096;28;1902;-72
2023/02/03 15:17:02;;;;;;;;;;;18.10;49.70;;;;;;10165358;28;1130;-72
2023/02/03 15:21:57;;;;;;;;;;;18.10;49.90;;;;;;10165747;28;835;-72
2023/02/03 15:26:52;;;;;;;;;;;18.10;49.80;;;;;;10165276;28;849;-72
2023/02/03 15:31:49;;;;;;;;;;;18.10;50.00;;;;;;10165324;28;1961;-72
2023/02/03 15:36:44;;;;;;;;;;;18.10;50.40;;;;;;10164852;28;1103;-72
2023/02/03 15:41:39;;;;;;;;;;;18.20;49.90;;;;;;10164676;28;818;-72
2023/02/03 15:46:35;;;;;;;;;;;18.20;49.90;;;;;;10163684;28;1193;-72
2023/02/03 15:51:30;;;;;;;;;;;18.20;49.80;;;;;;10164202;28;1978;-72
2023/02/03 15:56:25;;;;;;;;;;;18.20;49.80;;;;;;10163259;28;940;-72
2023/02/03 16:01:21;;;;;;;;;;;18.20;49.80;;;;;;10163946;28;855;-72
2023/02/03 16:06:17;;;;;;;;;;;18.20;49.80;;;;;;10163827;28;1646;-69
2023/02/03 16:11:12;;;;;;;;;;;18.20;49.80;;;;;;10163734;28;1910;-69
2023/02/03 16:16:08;;;;;;;;;;;18.20;49.80;;;;;;10164159;28;914;-72
2023/02/03 16:21:03;;;;;;;;;;;18.10;49.80;;;;;;10164106;28;924;-68
2023/02/03 16:25:58;;;;;;;;;;;18.10;49.90;;;;;;10163437;28;934;-68
2023/02/03 16:51:50;;;;;;;;;;;18.10;49.80;;;;;;10162547;28;1902;-72
2023/02/03 16:56:46;;;;;;;;;;;18.10;49.80;;;;;;10162923;28;909;-72
2023/02/03 17:01:41;;;;;;;;;;;18.10;49.60;;;;;;10162828;28;971;-71
2023/02/03 17:06:37;;;;;;;;;;;18.10;49.60;;;;;;10164609;28;884;-72
2023/02/03 17:11:32;;;;;;;;;;;18.10;49.60;;;;;;10170331;28;1958;-72
2023/02/03 17:16:27;;;;;;;;;;;18.10;49.60;;;;;;10170590;28;766;-72
2023/02/03 17:21:23;;;;;;;;;;;18.10;49.50;;;;;;10169150;28;1016;-72
2023/02/03 17:26:18;;;;;;;;;;;18.20;49.40;;;;;;10169611;28;774;-72
2023/02/03 17:31:13;;;;;;;;;;;18.20;49.40;;;;;;10169386;28;1969;-72
2023/02/03 17:36:09;;;;;;;;;;;18.20;49.50;;;;;;10169316;28;1155;-73
2023/02/03 17:41:04;;;;;;;;;;;18.20;49.70;;;;;;10169733;28;873;-72
2023/02/03 17:45:59;;;;;;;;;;;18.20;49.50;;;;;;10169429;28;792;-72
2023/02/03 17:50:55;;;;;;;;;;;18.20;49.20;;;;;;10168604;28;1977;-72
2023/02/03 17:55:50;;;;;;;;;;;18.20;49.50;;;;;;10168640;28;965;-72
2023/02/03 18:00:46;;;;;;;;;;;18.20;49.50;;;;;;10168847;28;794;-73
2023/02/03 18:05:41;;;;;;;;;;;18.20;49.50;;;;;;10168705;28;887;-72
2023/02/03 18:10:36;;;;;;;;;;;18.30;49.40;;;;;;10167938;28;1907;-73
2023/02/03 18:15:32;;;;;;;;;;;18.30;49.40;;;;;;10168313;28;789;-72
2023/02/03 18:20:27;;;;;;;;;;;18.30;49.40;;;;;;10166649;28;943;-72
2023/02/03 18:25:22;;;;;;;;;;;18.20;49.70;;;;;;10166795;28;1162;-72
2023/02/03 18:30:20;;;;;;;;;;;18.20;49.70;;;;;;10167148;28;1907;-72
2023/02/03 18:35:17;;;;;;;;;;;18.30;49.70;;;;;;10167250;28;1151;-73
2023/02/03 18:40:12;;;;;;;;;;;18.20;49.70;;;;;;10166675;28;1023;-72
2023/02/03 18:45:07;;;;;;;;;;;18.30;49.60;;;;;;10166024;28;980;-73
2023/02/03 18:50:03;;;;;;;;;;;18.30;49.70;;;;;;10167064;28;1918;-72
2023/02/03 18:54:58;;;;;;;;;;;18.30;49.60;;;;;;10165698;28;953;-72
2023/02/03 18:59:54;;;;;;;;;;;18.30;49.50;;;;;;10166078;28;778;-72
2023/02/03 19:04:49;;;;;;;;;;;18.30;49.60;;;;;;10165752;28;856;-72
2023/02/03 19:09:45;;;;;;;;;;;18.30;49.70;;;;;;10165819;28;1963;-72
2023/02/03 19:14:40;;;;;;;;;;;18.30;50.10;;;;;;10165441;28;860;-72
2023/02/03 19:19:35;;;;;;;;;;;18.30;49.40;;;;;;10165562;28;901;-80
2023/02/03 19:24:31;;;;;;;;;;;18.30;49.60;;;;;;10166025;28;832;-75
2023/02/03 19:29:26;;;;;;;;;;;18.10;49.80;;;;;;10165050;28;1906;-76
2023/02/03 19:34:21;;;;;;;;;;;18.00;50.50;;;;;;10165150;28;761;-82
2023/02/03 19:39:19;;;;;;;;;;;18.00;49.80;;;;;;10165689;28;1365;-76
2023/02/03 19:44:15;;;;;;;;;;;18.00;49.60;;;;;;10164759;28;971;-79
2023/02/03 19:49:12;;;;;;;;;;;18.00;49.80;;;;;;10164642;28;1922;-75
2023/02/03 19:54:07;;;;;;;;;;;17.90;49.80;;;;;;10164463;28;865;-75
2023/02/03 19:59:03;;;;;;;;;;;17.90;49.70;;;;;;10164415;28;888;-74
2023/02/03 20:03:58;;;;;;;;;;;17.90;49.80;;;;;;10164266;28;802;-75
2023/02/03 20:09:00;;;;;;;;;;;17.90;49.80;;;;;;10163881;28;1975;-75
2023/02/03 20:13:55;;;;;;;;;;;17.90;49.70;;;;;;10164655;28;861;-75
2023/02/03 20:18:51;;;;;;;;;;;17.90;49.70;;;;;;10163976;28;786;-75
2023/02/03 20:23:46;;;;;;;;;;;17.90;49.70;;;;;;10163532;28;941;-75
2023/02/03 20:28:42;;;;;;;;;;;17.90;49.60;;;;;;10163165;28;1969;-75
2023/02/03 20:33:38;;;;;;;;;;;17.90;49.50;;;;;;10163959;28;856;-71
2023/02/03 20:38:33;;;;;;;;;;;17.90;49.40;;;;;;10164029;28;1405;-71
2023/02/03 20:43:30;;;;;;;;;;;17.90;49.40;;;;;;10168554;28;787;-71
2023/02/03 20:48:26;;;;;;;;;;;17.90;49.40;;;;;;10170589;28;1910;-75
2023/02/03 20:53:21;;;;;;;;;;;17.80;49.40;;;;;;10171248;28;785;-75
2023/02/03 20:58:17;;;;;;;;;;;17.80;49.40;;;;;;10170489;28;964;-75
2023/02/03 21:08:26;;;;;;;;;;;17.70;49.40;;;;;;10170013;28;1972;-75
2023/02/03 21:13:21;;;;;;;;;;;17.70;49.40;;;;;;10170486;28;877;-75
2023/02/03 21:18:17;;;;;;;;;;;17.70;49.40;;;;;;10171102;28;860;-75
2023/02/03 21:23:13;;;;;;;;;;;17.70;49.40;;;;;;10171073;28;818;-75
2023/02/03 21:28:08;;;;;;;;;;;17.70;49.30;;;;;;10169812;28;1974;-75
2023/02/03 21:33:03;;;;;;;;;;;17.70;49.30;;;;;;10169233;28;857;-75
2023/02/03 21:38:02;;;;;;;;;;;17.70;49.30;;;;;;10169584;28;1257;-75
2023/02/03 21:42:58;;;;;;;;;;;17.70;49.30;;;;;;10168750;28;938;-75
2023/02/03 21:47:53;;;;;;;;;;;17.70;49.30;;;;;;10169721;28;1918;-75
2023/02/03 21:52:48;;;;;;;;;;;17.70;49.20;;;;;;10168254;28;877;-75
2023/02/03 21:57:44;;;;;;;;;;;17.70;49.10;;;;;;10168138;28;882;-75
2023/02/03 22:02:39;;;;;;;;;;;17.70;49.10;;;;;;10168649;28;853;-75
2023/02/03 22:07:34;;;;;;;;;;;17.70;49.20;;;;;;10167786;28;1911;-75
2023/02/03 22:12:30;;;;;;;;;;;17.60;49.10;;;;;;10168285;28;802;-75
2023/02/03 22:17:25;;;;;;;;;;;17.70;49.10;;;;;;10168093;28;802;-75
2023/02/03 22:22:21;;;;;;;;;;;17.70;49.10;;;;;;10168533;28;959;-75
2023/02/03 22:27:17;;;;;;;;;;;17.70;49.10;;;;;;10167719;28;787;-75
2023/02/03 22:32:12;;;;;;;;;;;17.70;49.10;;;;;;10166919;28;1878;-75
2023/02/03 22:37:07;;;;;;;;;;;17.70;49.10;;;;;;10167706;28;1447;-75
2023/02/03 22:42:03;;;;;;;;;;;17.70;49.20;;;;;;10167729;28;857;-75
2023/02/03 22:46:58;;;;;;;;;;;17.70;49.10;;;;;;10167440;28;871;-75
2023/02/03 22:51:53;;;;;;;;;;;17.70;49.10;;;;;;10166725;28;1965;-75
2023/02/03 22:56:49;;;;;;;;;;;17.70;49.10;;;;;;10167196;28;788;-75
2023/02/03 23:01:44;;;;;;;;;;;17.70;49.10;;;;;;10166426;28;785;-75
2023/02/03 23:06:40;;;;;;;;;;;17.60;49.00;;;;;;10166352;28;915;-75
2023/02/03 23:11:35;;;;;;;;;;;17.60;49.10;;;;;;10166204;28;1955;-75
2023/02/03 23:16:30;;;;;;;;;;;17.60;49.10;;;;;;10165281;28;1004;-75
2023/02/03 23:21:26;;;;;;;;;;;17.60;49.10;;;;;;10166238;28;862;-75
2023/02/03 23:26:21;;;;;;;;;;;17.60;49.00;;;;;;10165639;28;928;-75
2023/02/03 23:31:16;;;;;;;;;;;17.60;49.00;;;;;;10165265;28;1961;-75
2023/02/03 23:36:12;;;;;;;;;;;17.60;49.10;;;;;;10165314;28;1538;-75
2023/02/03 23:41:07;;;;;;;;;;;17.70;49.10;;;;;;10164985;28;779;-75
2023/02/03 23:46:03;;;;;;;;;;;17.70;49.00;;;;;;10165623;28;886;-75
2023/02/03 23:50:58;;;;;;;;;;;17.70;49.00;;;;;;10165318;28;1907;-75
2023/02/03 23:55:53;;;;;;;;;;;17.60;49.00;;;;;;10165171;28;929;-75
